createdAt,value
2018-09-08T00:00:54.453Z,99.90
2018-09-08T00:03:22.994Z,99.90
2018-09-08T00:05:51.591Z,99.90
2018-09-08T00:08:20.104Z,99.90
2018-09-08T00:10:48.574Z,99.90
2018-09-08T00:13:17.090Z,99.90
2018-09-08T00:15:51.046Z,99.90
2018-09-08T00:18:25.064Z,99.90
2018-09-08T00:20:58.729Z,99.90
2018-09-08T00:23:32.541Z,99.90
2018-09-08T00:26:06.453Z,99.90
2018-09-08T00:28:40.276Z,99.90
2018-09-08T00:31:12.709Z,99.90
2018-09-08T00:33:41.169Z,99.90
2018-09-08T00:36:09.654Z,99.90
2018-09-08T00:38:38.446Z,99.90
2018-09-08T00:41:07.071Z,99.90
2018-09-08T00:43:35.543Z,99.90
2018-09-08T00:46:04.050Z,99.90
2018-09-08T00:48:32.539Z,99.90
2018-09-08T00:51:01.306Z,99.90
2018-09-08T00:53:30.097Z,99.90
2018-09-08T00:55:58.609Z,99.90
2018-09-08T00:58:27.108Z,99.90
2018-09-08T01:00:55.668Z,99.90
2018-09-08T01:03:24.125Z,99.90
2018-09-08T01:05:53.193Z,99.90
2018-09-08T01:08:21.969Z,99.90
2018-09-08T01:10:50.489Z,99.90
2018-09-08T01:13:18.997Z,99.90
2018-09-08T01:15:47.465Z,99.90
2018-09-08T01:18:15.946Z,99.90
2018-09-08T01:20:44.461Z,99.90
2018-09-08T01:23:12.921Z,99.90
2018-09-08T01:25:41.402Z,99.90
2018-09-08T01:28:09.845Z,99.90
2018-09-08T01:30:38.328Z,99.90
2018-09-08T01:33:06.866Z,99.90
2018-09-08T01:35:35.343Z,99.90
2018-09-08T01:38:03.798Z,99.90
2018-09-08T01:40:32.470Z,99.90
2018-09-08T01:43:00.947Z,99.90
2018-09-08T01:45:29.419Z,99.90
2018-09-08T01:47:57.979Z,99.90
2018-09-08T01:50:26.493Z,99.90
2018-09-08T01:52:55.018Z,99.90
2018-09-08T01:55:23.477Z,99.90
2018-09-08T01:57:52.064Z,99.90
2018-09-08T02:00:20.595Z,99.90
2018-09-08T02:02:49.097Z,99.90
2018-09-08T02:05:17.566Z,99.90
2018-09-08T02:07:46.051Z,99.90
2018-09-08T02:10:14.510Z,99.90
2018-09-08T02:12:43.025Z,99.90
2018-09-08T02:15:11.529Z,99.90
2018-09-08T02:17:40.114Z,99.90
2018-09-08T02:20:08.630Z,99.90
2018-09-08T02:22:37.098Z,99.90
2018-09-08T02:25:05.596Z,99.90
2018-09-08T02:27:34.132Z,99.90
2018-09-08T02:30:02.617Z,99.90
2018-09-08T02:32:31.127Z,99.90
2018-09-08T02:34:59.648Z,99.90
2018-09-08T02:37:28.122Z,99.90
2018-09-08T02:39:56.687Z,99.90
2018-09-08T02:42:25.217Z,99.90
2018-09-08T02:44:54.069Z,99.90
2018-09-08T02:47:22.616Z,99.90
2018-09-08T02:50:02.458Z,99.90
2018-09-08T02:52:29.784Z,99.90
2018-09-08T02:54:57.218Z,99.90
2018-09-08T02:57:24.566Z,99.90
2018-09-08T02:59:51.870Z,99.90
2018-09-08T03:02:19.233Z,99.90
2018-09-08T03:04:46.555Z,99.90
2018-09-08T03:07:14.840Z,99.90
2018-09-08T03:09:44.210Z,99.90
2018-09-08T03:12:11.513Z,99.90
2018-09-08T03:14:39.109Z,99.90
2018-09-08T03:17:07.201Z,99.90
2018-09-08T03:19:34.542Z,99.90
2018-09-08T03:22:01.931Z,99.90
2018-09-08T03:24:29.313Z,99.90
2018-09-08T03:26:56.722Z,99.90
2018-09-08T03:29:24.064Z,99.90
2018-09-08T03:31:51.377Z,99.90
2018-09-08T03:34:18.702Z,99.90
2018-09-08T03:36:46.054Z,99.90
2018-09-08T03:39:13.380Z,99.90
2018-09-08T03:41:40.720Z,99.90
2018-09-08T03:44:08.033Z,99.90
2018-09-08T03:46:35.372Z,99.90
2018-09-08T03:49:02.718Z,99.90
2018-09-08T03:51:30.037Z,99.90
2018-09-08T03:53:57.373Z,99.90
2018-09-08T03:56:24.681Z,99.90
2018-09-08T03:58:52.029Z,99.90
2018-09-08T04:01:19.372Z,99.90
2018-09-08T04:03:47.900Z,99.90
2018-09-08T04:06:16.375Z,99.90
2018-09-08T04:08:44.854Z,99.90
2018-09-08T04:11:13.400Z,99.90
2018-09-08T04:13:41.938Z,99.90
2018-09-08T04:16:10.420Z,99.90
2018-09-08T04:18:38.885Z,99.90
2018-09-08T04:21:07.524Z,99.90
2018-09-08T04:23:36.269Z,99.90
2018-09-08T04:26:04.708Z,99.90
2018-09-08T04:28:33.638Z,99.90
2018-09-08T04:31:02.967Z,99.90
2018-09-08T04:33:31.548Z,99.90
2018-09-08T04:36:00.290Z,99.90
2018-09-08T04:38:28.782Z,99.90
2018-09-08T04:40:57.339Z,99.90
2018-09-08T04:43:25.877Z,99.90
2018-09-08T04:45:54.811Z,99.90
2018-09-08T04:48:23.302Z,99.90
2018-09-08T04:50:51.756Z,99.90
2018-09-08T04:53:20.268Z,99.90
2018-09-08T04:55:48.804Z,99.90
2018-09-08T04:58:17.275Z,99.90
2018-09-08T05:00:45.726Z,99.90
2018-09-08T05:03:14.255Z,99.90
2018-09-08T05:05:42.758Z,99.90
2018-09-08T05:08:11.345Z,99.90
2018-09-08T05:10:39.784Z,99.90
2018-09-08T05:13:08.274Z,99.90
2018-09-08T05:15:36.711Z,99.90
2018-09-08T05:18:05.275Z,99.90
2018-09-08T05:20:33.772Z,99.90
2018-09-08T05:23:02.298Z,99.90
2018-09-08T05:25:30.961Z,99.90
2018-09-08T05:27:59.556Z,99.90
2018-09-08T05:30:28.009Z,99.90
2018-09-08T05:32:56.505Z,99.90
2018-09-08T05:35:25.077Z,99.90
2018-09-08T05:37:53.550Z,99.90
2018-09-08T05:40:22.038Z,99.90
2018-09-08T05:42:50.557Z,99.90
2018-09-08T05:45:19.032Z,99.90
2018-09-08T05:47:47.517Z,99.90
2018-09-08T05:50:16.048Z,99.90
2018-09-08T05:52:44.570Z,99.90
2018-09-08T05:55:13.109Z,99.90
2018-09-08T05:57:41.580Z,99.90
2018-09-08T06:00:10.198Z,99.90
2018-09-08T06:02:38.667Z,99.90
2018-09-08T06:05:07.226Z,99.90
2018-09-08T06:07:35.702Z,99.90
2018-09-08T06:10:04.295Z,99.90
2018-09-08T06:12:32.800Z,99.90
2018-09-08T06:15:01.265Z,99.90
2018-09-08T06:17:29.804Z,99.90
2018-09-08T06:19:58.312Z,99.90
2018-09-08T06:22:26.830Z,99.90
2018-09-08T06:24:55.373Z,99.90
2018-09-08T06:27:23.896Z,99.90
2018-09-08T06:29:52.401Z,99.90
2018-09-08T06:32:20.962Z,99.90
2018-09-08T06:34:49.530Z,99.90
2018-09-08T06:37:18.050Z,99.90
2018-09-08T06:39:46.578Z,99.90
2018-09-08T06:42:15.113Z,99.90
2018-09-08T06:44:44.458Z,99.90
2018-09-08T06:47:12.900Z,99.90
2018-09-08T06:49:41.484Z,99.90
2018-09-08T06:52:10.027Z,99.90
2018-09-08T06:54:38.473Z,99.90
2018-09-08T06:57:06.957Z,99.90
2018-09-08T06:59:35.409Z,99.90
2018-09-08T07:02:03.997Z,99.90
2018-09-08T07:04:32.512Z,99.90
2018-09-08T07:07:01.047Z,99.90
2018-09-08T07:09:29.550Z,99.90
2018-09-08T07:11:58.102Z,99.90
2018-09-08T07:14:26.601Z,99.90
2018-09-08T07:16:55.112Z,99.90
2018-09-08T07:19:23.763Z,99.90
2018-09-08T07:21:52.206Z,99.90
2018-09-08T07:24:20.698Z,99.90
2018-09-08T07:26:49.215Z,99.90
2018-09-08T07:29:17.697Z,99.90
2018-09-08T07:31:46.140Z,99.90
2018-09-08T07:34:14.598Z,99.90
2018-09-08T07:36:43.067Z,99.90
2018-09-08T07:39:11.998Z,99.90
2018-09-08T07:41:40.449Z,99.90
2018-09-08T07:44:08.948Z,99.90
2018-09-08T07:46:37.615Z,99.90
2018-09-08T07:49:06.233Z,99.90
2018-09-08T07:51:34.719Z,99.90
2018-09-08T07:54:03.237Z,99.90
2018-09-08T07:56:31.717Z,99.90
2018-09-08T07:59:00.637Z,99.90
2018-09-08T08:01:29.228Z,99.90
2018-09-08T08:03:57.713Z,99.90
2018-09-08T08:06:26.924Z,99.90
2018-09-08T08:08:55.428Z,99.90
2018-09-08T08:11:24.004Z,99.90
2018-09-08T08:13:52.526Z,99.90
2018-09-08T08:16:21.146Z,99.90
2018-09-08T08:18:49.620Z,99.90
2018-09-08T08:21:18.103Z,99.90
2018-09-08T08:23:46.647Z,99.90
2018-09-08T08:26:15.139Z,99.90
2018-09-08T08:28:43.604Z,99.90
2018-09-08T08:31:12.122Z,99.90
2018-09-08T08:33:40.585Z,99.90
2018-09-08T08:36:09.072Z,99.90
2018-09-08T08:38:37.578Z,99.90
2018-09-08T08:41:06.084Z,99.90
2018-09-08T08:43:34.578Z,99.90
2018-09-08T08:46:03.160Z,99.70
2018-09-08T08:48:31.637Z,99.90
2018-09-08T08:51:11.485Z,99.90
2018-09-08T08:53:51.095Z,99.70
2018-09-08T08:56:19.621Z,99.40
2018-09-08T08:58:48.206Z,99.50
2018-09-08T09:01:16.944Z,99.90
2018-09-08T09:03:45.529Z,99.40
2018-09-08T09:06:16.871Z,99.00
2018-09-08T09:08:45.809Z,98.90
2018-09-08T09:11:13.925Z,99.40
2018-09-08T09:13:42.644Z,99.20
2018-09-08T09:16:11.228Z,99.20
2018-09-08T09:18:51.407Z,98.40
2018-09-08T09:21:30.568Z,98.20
2018-09-08T09:25:17.590Z,98.70
2018-09-08T09:27:48.067Z,98.10
2018-09-08T09:30:17.264Z,98.40
2018-09-08T09:32:45.823Z,98.40
2018-09-08T09:35:17.619Z,98.80
2018-09-08T09:37:46.262Z,98.60
2018-09-08T09:40:22.194Z,98.90
2018-09-08T09:42:50.667Z,98.80
2018-09-08T09:45:19.125Z,98.70
2018-09-08T09:47:47.592Z,98.90
2018-09-08T09:50:16.093Z,98.20
2018-09-08T09:52:44.533Z,98.50
2018-09-08T09:55:13.017Z,98.60
2018-09-08T09:57:41.458Z,98.20
2018-09-08T10:00:14.437Z,98.60
2018-09-08T10:02:48.592Z,98.50
2018-09-08T10:05:18.610Z,98.60
2018-09-08T10:07:47.306Z,97.80
2018-09-08T10:10:32.448Z,97.50
2018-09-08T10:13:00.925Z,97.30
2018-09-08T10:15:29.480Z,97.60
2018-09-08T10:17:58.211Z,97.70
2018-09-08T10:20:26.763Z,97.40
2018-09-08T10:22:55.376Z,96.40
2018-09-08T10:25:23.956Z,96.50
2018-09-08T10:27:52.458Z,96.00
2018-09-08T10:30:20.997Z,96.30
2018-09-08T10:32:49.927Z,96.40
2018-09-08T10:35:18.424Z,96.30
2018-09-08T10:37:46.928Z,96.00
2018-09-08T10:40:15.448Z,95.80
2018-09-08T10:42:43.925Z,96.10
2018-09-08T10:45:12.483Z,95.20
2018-09-08T10:54:47.909Z,96.00
2018-09-08T10:57:16.633Z,96.80
2018-09-08T10:59:45.153Z,96.30
2018-09-08T11:02:13.976Z,96.70
2018-09-08T11:04:42.866Z,96.50
2018-09-08T11:07:11.894Z,96.90
2018-09-08T11:09:40.398Z,96.70
2018-09-08T11:12:09.002Z,96.30
2018-09-08T11:14:37.487Z,96.20
2018-09-08T11:17:06.013Z,96.20
2018-09-08T11:19:34.519Z,95.80
2018-09-08T11:22:03.057Z,96.20
2018-09-08T11:24:31.963Z,95.90
2018-09-08T11:27:00.430Z,95.90
2018-09-08T11:29:28.938Z,95.80
2018-09-08T11:31:57.650Z,95.40
2018-09-08T11:34:26.095Z,94.90
2018-09-08T11:36:54.578Z,94.90
2018-09-08T11:39:23.448Z,94.70
2018-09-08T11:41:51.917Z,94.30
2018-09-08T11:44:20.370Z,94.00
2018-09-08T11:46:48.962Z,94.40
2018-09-08T11:49:17.458Z,93.70
2018-09-08T11:51:45.930Z,94.00
2018-09-08T11:54:14.403Z,94.00
2018-09-08T11:56:42.852Z,93.90
2018-09-08T11:59:11.310Z,94.00
2018-09-08T12:01:39.780Z,93.50
2018-09-08T12:04:08.577Z,93.00
2018-09-08T12:06:37.075Z,92.60
2018-09-08T12:09:07.846Z,92.60
2018-09-08T12:11:36.556Z,92.00
2018-09-08T12:14:05.123Z,92.40
2018-09-08T12:16:33.600Z,92.80
2018-09-08T12:19:02.100Z,92.90
2018-09-08T12:21:30.568Z,93.20
2018-09-08T12:23:59.961Z,92.90
2018-09-08T12:26:28.488Z,93.00
2018-09-08T12:28:56.934Z,92.70
2018-09-08T12:31:25.387Z,91.70
2018-09-08T12:33:53.868Z,91.80
2018-09-08T12:36:23.100Z,91.60
2018-09-08T12:38:51.861Z,92.40
2018-09-08T12:41:20.488Z,92.60
2018-09-08T12:43:49.043Z,91.80
2018-09-08T12:46:17.519Z,92.10
2018-09-08T12:48:45.997Z,92.10
2018-09-08T12:51:14.691Z,92.10
2018-09-08T12:53:43.165Z,92.60
2018-09-08T12:56:11.640Z,91.10
2018-09-08T12:58:40.122Z,91.70
2018-09-08T13:01:08.565Z,92.00
2018-09-08T13:03:37.036Z,92.10
2018-09-08T13:06:05.681Z,91.70
2018-09-08T13:08:34.146Z,91.60
2018-09-08T13:11:02.647Z,90.80
2018-09-08T13:13:32.029Z,91.00
2018-09-08T13:16:00.539Z,90.40
2018-09-08T13:18:29.036Z,90.40
2018-09-08T13:20:57.522Z,90.80
2018-09-08T13:23:26.018Z,90.80
2018-09-08T13:25:54.438Z,91.10
2018-09-08T13:28:22.894Z,90.60
2018-09-08T13:30:51.341Z,90.70
2018-09-08T13:33:19.802Z,90.70
2018-09-08T13:35:48.226Z,90.60
2018-09-08T13:38:16.676Z,89.00
2018-09-08T13:40:45.131Z,90.30
2018-09-08T13:43:13.587Z,89.30
2018-09-08T13:45:42.058Z,89.80
2018-09-08T13:48:10.486Z,89.40
2018-09-08T13:50:38.947Z,89.90
2018-09-08T13:53:07.385Z,89.80
2018-09-08T13:55:35.836Z,90.10
2018-09-08T13:58:04.304Z,90.00
2018-09-08T14:00:32.753Z,90.00
2018-09-08T14:03:01.298Z,89.80
2018-09-08T14:05:29.773Z,89.90
2018-09-08T14:08:00.854Z,90.20
2018-09-08T14:10:29.309Z,89.40
2018-09-08T14:12:57.754Z,89.40
2018-09-08T14:15:26.275Z,90.10
2018-09-08T14:17:54.648Z,90.60
2018-09-08T14:20:23.141Z,90.60
2018-09-08T14:22:51.608Z,90.00
2018-09-08T14:25:20.091Z,90.00
2018-09-08T14:27:48.532Z,88.50
2018-09-08T14:30:17.001Z,88.00
2018-09-08T14:32:45.454Z,87.20
2018-09-08T14:35:13.905Z,88.40
2018-09-08T14:37:42.466Z,88.00
2018-09-08T14:40:10.932Z,87.80
2018-09-08T14:42:39.409Z,89.30
2018-09-08T14:45:07.894Z,89.00
2018-09-08T14:47:36.457Z,88.40
2018-09-08T14:50:04.919Z,89.50
2018-09-08T14:52:33.354Z,90.10
2018-09-08T14:55:01.818Z,89.90
2018-09-08T14:57:30.294Z,88.60
2018-09-08T14:59:58.767Z,87.50
2018-09-08T15:02:27.193Z,87.40
2018-09-08T15:04:55.690Z,87.80
2018-09-08T15:07:25.034Z,87.80
2018-09-08T15:09:53.876Z,87.40
2018-09-08T15:12:23.224Z,87.70
2018-09-08T15:14:51.684Z,87.70
2018-09-08T15:17:20.982Z,88.60
2018-09-08T15:19:49.449Z,88.50
2018-09-08T15:22:17.929Z,88.80
2018-09-08T15:24:46.391Z,89.70
2018-09-08T15:27:15.406Z,89.40
2018-09-08T15:29:44.216Z,88.30
2018-09-08T15:32:13.477Z,88.50
2018-09-08T15:34:41.941Z,88.60
2018-09-08T15:37:10.412Z,89.00
2018-09-08T15:39:39.142Z,88.90
2018-09-08T15:42:07.602Z,89.30
2018-09-08T15:44:36.264Z,89.80
2018-09-08T15:47:04.752Z,89.80
2018-09-08T15:49:33.332Z,90.20
2018-09-08T15:52:01.757Z,90.30
2018-09-08T15:54:30.334Z,90.50
2018-09-08T15:56:58.809Z,90.50
2018-09-08T15:59:27.266Z,90.80
2018-09-08T16:01:55.748Z,91.00
2018-09-08T16:04:24.201Z,91.00
2018-09-08T16:06:53.027Z,91.20
2018-09-08T16:09:21.470Z,91.10
2018-09-08T16:11:49.945Z,90.90
2018-09-08T16:14:18.420Z,91.10
2018-09-08T16:16:46.878Z,91.10
2018-09-08T16:19:15.330Z,91.20
2018-09-08T16:21:43.901Z,91.30
2018-09-08T16:24:12.358Z,90.90
2018-09-08T16:26:40.850Z,90.90
2018-09-08T16:29:09.313Z,90.80
2018-09-08T16:31:37.737Z,91.10
2018-09-08T16:34:06.578Z,91.40
2018-09-08T16:36:35.011Z,91.40
2018-09-08T16:39:03.627Z,91.20
2018-09-08T16:41:32.097Z,91.30
2018-09-08T16:44:00.613Z,91.40
2018-09-08T16:46:29.081Z,91.50
2018-09-08T16:48:57.527Z,91.60
2018-09-08T16:51:25.997Z,91.90
2018-09-08T16:53:54.560Z,92.00
2018-09-08T16:56:23.042Z,91.50
2018-09-08T16:58:51.486Z,91.70
2018-09-08T17:01:19.989Z,91.80
2018-09-08T17:03:48.505Z,91.90
2018-09-08T17:06:17.221Z,91.90
2018-09-08T17:08:45.674Z,92.30
2018-09-08T17:11:14.100Z,92.40
2018-09-08T17:13:42.562Z,92.40
2018-09-08T17:16:10.991Z,92.70
2018-09-08T17:18:39.451Z,92.80
2018-09-08T17:21:07.948Z,92.80
2018-09-08T17:23:36.414Z,92.90
2018-09-08T17:26:04.886Z,93.00
2018-09-08T17:28:34.012Z,93.10
2018-09-08T17:31:02.486Z,93.20
2018-09-08T17:33:30.910Z,93.80
2018-09-08T17:35:59.343Z,94.80
2018-09-08T17:38:27.854Z,96.10
2018-09-08T17:40:56.360Z,96.30
2018-09-08T17:43:24.820Z,96.50
2018-09-08T17:54:31.199Z,97.90
2018-09-08T17:56:59.742Z,98.40
